Time;durP1;ratioP1;P1;durP2;ratioP2;P2;SDS_P1;SDS_P2;PMS_P1;PMS_P2;Temp;Humidity;BMP_temperature;BMP_pressure;BME280_temperature;BME280_humidity;BME280_pressure;Samples;Min_cycle;Max_cycle;Signal;HPM_P1;HPM_P2
2021/10/03 00:01:22;;;;;;;8.75;6.38;;;16.30;99.90;;;;;;5039004;28;20277;-75
2021/10/03 00:03:53;;;;;;;7.07;5.20;;;16.20;99.90;;;;;;5042191;28;20696;-76
2021/10/03 00:06:22;;;;;;;6.35;5.75;;;16.20;99.90;;;;;;5034674;28;20249;-74
2021/10/03 00:08:52;;;;;;;5.65;5.10;;;16.20;99.90;;;;;;5041424;28;20246;-76
2021/10/03 00:11:20;;;;;;;5.95;5.35;;;16.20;99.90;;;;;;5031135;28;20306;-76
2021/10/03 00:13:47;;;;;;;8.98;6.95;;;16.20;99.90;;;;;;5033050;28;20235;-76
2021/10/03 00:16:15;;;;;;;5.38;4.88;;;16.30;99.90;;;;;;5036075;28;20238;-76
2021/10/03 00:18:44;;;;;;;4.80;4.40;;;16.30;99.90;;;;;;5036372;28;20238;-77
2021/10/03 00:21:11;;;;;;;4.82;4.32;;;16.30;99.90;;;;;;5039507;28;20234;-76
2021/10/03 00:23:39;;;;;;;4.43;4.03;;;16.40;99.90;;;;;;5033536;28;20236;-76
2021/10/03 00:26:06;;;;;;;4.80;4.35;;;16.40;99.90;;;;;;5037665;28;20289;-76
2021/10/03 00:28:33;;;;;;;4.20;3.80;;;16.40;99.90;;;;;;5035745;28;20234;-77
2021/10/03 00:31:00;;;;;;;4.93;4.40;;;16.40;99.90;;;;;;5036204;28;20280;-76
2021/10/03 00:33:27;;;;;;;4.22;3.83;;;16.30;99.90;;;;;;5040194;28;20316;-76
2021/10/03 00:35:56;;;;;;;4.00;3.70;;;16.30;99.90;;;;;;5030326;28;20242;-77
2021/10/03 00:38:23;;;;;;;4.57;4.18;;;16.30;99.90;;;;;;5037193;28;20641;-77
2021/10/03 00:40:50;;;;;;;5.13;4.63;;;16.30;99.90;;;;;;5036918;28;20222;-77
2021/10/03 00:43:17;;;;;;;4.35;3.95;;;16.30;99.90;;;;;;5040462;28;20221;-77
2021/10/03 00:45:45;;;;;;;4.30;3.90;;;16.20;99.90;;;;;;5032998;28;20772;-75
2021/10/03 00:48:12;;;;;;;4.35;3.95;;;16.30;99.90;;;;;;5035098;28;20718;-76
2021/10/03 00:50:41;;;;;;;4.45;4.05;;;16.30;99.90;;;;;;5043072;28;20227;-77
2021/10/03 00:53:10;;;;;;;4.75;4.18;;;16.20;99.90;;;;;;5045644;28;20224;-77
2021/10/03 00:55:37;;;;;;;5.03;4.43;;;16.20;99.90;;;;;;5040962;28;20301;-76
2021/10/03 00:58:04;;;;;;;4.82;4.43;;;16.20;99.90;;;;;;5036307;28;20227;-76
2021/10/03 01:00:33;;;;;;;4.07;3.67;;;16.10;99.90;;;;;;5037785;28;20227;-76
2021/10/03 01:03:02;;;;;;;4.60;4.13;;;16.20;99.90;;;;;;5040484;28;20238;-76
2021/10/03 01:05:29;;;;;;;6.95;6.25;;;16.20;99.90;;;;;;5037790;28;20242;-77
2021/10/03 01:07:56;;;;;;;7.05;6.10;;;16.20;99.90;;;;;;5045617;28;20300;-76
2021/10/03 01:10:27;;;;;;;5.97;5.38;;;16.20;99.90;;;;;;5052865;28;20580;-77
2021/10/03 01:12:57;;;;;;;5.30;4.80;;;16.20;99.90;;;;;;5057522;28;20716;-76
2021/10/03 01:15:26;;;;;;;5.22;4.72;;;16.20;99.90;;;;;;5051320;28;20226;-77
2021/10/03 01:17:53;;;;;;;5.68;4.85;;;16.20;99.90;;;;;;5054401;28;20272;-75
2021/10/03 01:20:20;;;;;;;6.20;5.60;;;16.20;99.90;;;;;;5057199;28;20278;-76
2021/10/03 01:22:49;;;;;;;8.10;7.03;;;16.20;99.90;;;;;;5051266;28;20226;-76
2021/10/03 01:25:16;;;;;;;6.68;5.47;;;16.00;99.90;;;;;;5063678;28;20226;-76
2021/10/03 01:27:43;;;;;;;5.78;5.28;;;15.90;99.90;;;;;;5060956;28;20659;-75
2021/10/03 01:30:13;;;;;;;6.95;6.25;;;15.90;99.90;;;;;;5060073;28;20241;-76
2021/10/03 01:32:41;;;;;;;5.70;5.20;;;15.90;99.90;;;;;;5062495;28;20214;-76
2021/10/03 01:35:09;;;;;;;5.68;4.93;;;15.90;99.90;;;;;;5062672;28;20222;-75
2021/10/03 01:37:37;;;;;;;5.43;4.90;;;15.90;99.90;;;;;;5057155;28;20234;-76
2021/10/03 01:40:08;;;;;;;5.32;4.88;;;15.90;99.90;;;;;;5057330;28;20233;-76
2021/10/03 01:42:36;;;;;;;4.05;3.70;;;15.90;99.90;;;;;;5060260;28;20640;-76
2021/10/03 01:45:04;;;;;;;5.43;4.90;;;15.90;99.90;;;;;;5060360;28;20272;-76
2021/10/03 01:47:32;;;;;;;7.10;5.13;;;15.90;99.90;;;;;;5061826;28;20226;-75
2021/10/03 01:49:59;;;;;;;5.63;5.13;;;15.90;99.90;;;;;;5061305;28;20238;-76
2021/10/03 01:52:26;;;;;;;4.63;4.22;;;15.80;99.90;;;;;;5060760;28;20218;-76
2021/10/03 01:54:53;;;;;;;5.22;4.53;;;15.90;99.90;;;;;;5062722;28;20235;-74
2021/10/03 01:57:21;;;;;;;5.80;5.20;;;15.80;99.90;;;;;;5061420;28;20275;-75
2021/10/03 01:59:48;;;;;;;7.05;6.35;;;15.80;99.90;;;;;;5052711;28;20226;-76
2021/10/03 02:02:15;;;;;;;5.57;5.07;;;15.80;99.90;;;;;;5056716;28;20230;-77
2021/10/03 02:04:42;;;;;;;5.72;5.03;;;15.80;99.90;;;;;;5045056;28;20319;-76
2021/10/03 02:07:09;;;;;;;5.10;4.70;;;15.80;99.90;;;;;;5042876;28;20218;-77
2021/10/03 02:09:36;;;;;;;5.68;5.07;;;15.80;99.90;;;;;;5053739;28;20283;-76
2021/10/03 02:12:03;;;;;;;5.30;4.80;;;15.80;99.90;;;;;;5057127;28;20234;-76
2021/10/03 02:14:34;;;;;;;6.57;5.40;;;15.80;99.90;;;;;;5053910;28;20303;-76
2021/10/03 02:17:05;;;;;;;7.95;7.15;;;15.80;99.90;;;;;;5055635;28;20715;-76
2021/10/03 02:19:33;;;;;;;7.57;6.78;;;15.80;99.90;;;;;;5054100;28;20333;-76
2021/10/03 02:22:01;;;;;;;6.15;5.55;;;15.70;99.90;;;;;;5060661;28;20233;-75
2021/10/03 02:24:28;;;;;;;5.53;5.03;;;15.70;99.90;;;;;;5057457;28;20640;-76
2021/10/03 02:26:55;;;;;;;5.60;5.10;;;15.70;99.90;;;;;;5058582;28;20233;-76
2021/10/03 02:29:22;;;;;;;5.13;4.63;;;15.70;99.90;;;;;;5060455;28;20638;-76
2021/10/03 02:31:50;;;;;;;5.13;4.63;;;15.70;99.90;;;;;;5055962;28;20287;-76
2021/10/03 02:34:18;;;;;;;5.47;4.93;;;15.70;99.90;;;;;;5058217;28;20299;-76
2021/10/03 02:36:45;;;;;;;4.75;4.25;;;15.70;99.90;;;;;;5061305;28;20278;-76
2021/10/03 02:39:13;;;;;;;5.43;4.93;;;15.70;99.90;;;;;;5055602;28;20310;-76
2021/10/03 02:41:40;;;;;;;5.38;4.88;;;15.70;99.90;;;;;;5051199;28;20720;-77
2021/10/03 02:44:09;;;;;;;6.05;4.95;;;15.60;99.90;;;;;;5061409;28;20228;-75
2021/10/03 02:46:36;;;;;;;6.70;5.80;;;15.60;99.90;;;;;;5054833;28;20757;-74
2021/10/03 02:49:05;;;;;;;6.47;5.80;;;15.60;99.90;;;;;;5058655;28;20646;-75
2021/10/03 02:51:32;;;;;;;6.78;6.07;;;15.50;99.90;;;;;;5044443;22;20235;-74
2021/10/03 02:54:00;;;;;;;5.95;5.35;;;15.50;99.90;;;;;;5028930;28;20231;-76
2021/10/03 02:56:30;;;;;;;5.03;4.53;;;15.60;99.90;;;;;;4987874;28;20271;-77
2021/10/03 02:58:57;;;;;;;4.82;4.43;;;15.60;99.90;;;;;;5025672;28;20631;-77
2021/10/03 03:01:25;;;;;;;5.07;4.57;;;15.60;99.90;;;;;;5019428;28;20232;-77
2021/10/03 03:03:52;;;;;;;5.28;4.78;;;15.60;99.90;;;;;;5019370;28;20674;-77
2021/10/03 03:06:20;;;;;;;4.93;4.53;;;15.60;99.90;;;;;;5021928;28;20223;-74
2021/10/03 03:08:48;;;;;;;4.50;4.10;;;15.70;99.90;;;;;;5018528;28;20293;-77
2021/10/03 03:11:16;;;;;;;5.03;4.53;;;15.70;99.90;;;;;;5017653;28;20236;-77
2021/10/03 03:13:43;;;;;;;5.15;4.65;;;15.70;99.90;;;;;;5016447;28;20258;-76
2021/10/03 03:16:10;;;;;;;5.40;5.00;;;15.70;99.90;;;;;;5019692;28;20306;-77
2021/10/03 03:18:39;;;;;;;9.18;5.70;;;15.70;99.90;;;;;;5019259;28;20235;-77
2021/10/03 03:21:06;;;;;;;8.32;5.75;;;15.60;99.90;;;;;;5013426;28;20705;-76
2021/10/03 03:23:34;;;;;;;6.47;5.85;;;15.50;99.90;;;;;;5010459;28;20236;-76
2021/10/03 03:26:01;;;;;;;6.40;5.80;;;15.50;99.90;;;;;;5012910;28;20289;-77
2021/10/03 03:28:28;;;;;;;5.78;5.28;;;15.50;99.90;;;;;;5020616;28;21862;-79
2021/10/03 03:30:55;;;;;;;6.95;4.85;;;15.50;99.90;;;;;;5025541;28;20239;-76
2021/10/03 03:33:22;;;;;;;5.30;4.80;;;15.60;99.90;;;;;;5027798;28;20763;-76
2021/10/03 03:35:49;;;;;;;5.20;4.72;;;15.60;99.90;;;;;;5006733;28;20227;-76
2021/10/03 03:38:16;;;;;;;5.43;4.93;;;15.60;99.90;;;;;;4998870;28;20283;-77
2021/10/03 03:40:45;;;;;;;5.50;5.00;;;15.60;99.90;;;;;;5009032;28;20380;-78
2021/10/03 03:43:12;;;;;;;5.10;4.60;;;15.60;99.90;;;;;;5017114;28;20717;-77
2021/10/03 03:45:39;;;;;;;6.25;5.65;;;15.60;99.90;;;;;;5024159;28;20267;-77
2021/10/03 03:48:07;;;;;;;5.88;5.25;;;15.60;99.90;;;;;;5026411;28;20222;-77
2021/10/03 03:50:35;;;;;;;5.45;4.95;;;15.50;99.90;;;;;;4997252;28;20239;-76
2021/10/03 03:53:02;;;;;;;5.10;4.60;;;15.50;99.90;;;;;;5023026;28;20288;-77
2021/10/03 03:55:29;;;;;;;5.32;4.82;;;15.50;99.90;;;;;;5019905;28;20235;-77
2021/10/03 03:57:57;;;;;;;4.90;4.43;;;15.60;99.90;;;;;;5027434;28;20239;-76
2021/10/03 04:00:24;;;;;;;5.43;4.93;;;15.60;99.90;;;;;;5017232;28;20658;-78
2021/10/03 04:02:51;;;;;;;4.47;4.07;;;15.50;99.90;;;;;;5020901;28;20215;-77
2021/10/03 04:05:18;;;;;;;5.30;4.80;;;15.50;99.90;;;;;;5018379;28;20277;-76
2021/10/03 04:07:45;;;;;;;8.98;6.40;;;15.50;99.90;;;;;;5024289;28;20227;-77
2021/10/03 04:10:13;;;;;;;6.80;6.10;;;15.50;99.90;;;;;;5019940;28;20583;-78
2021/10/03 04:12:40;;;;;;;6.55;5.63;;;15.40;99.90;;;;;;5026628;28;20733;-80
2021/10/03 04:15:10;;;;;;;6.55;5.82;;;15.40;99.90;;;;;;5019663;28;20227;-77
2021/10/03 04:17:37;;;;;;;5.70;5.20;;;15.40;99.90;;;;;;5025860;28;20269;-76
2021/10/03 04:20:06;;;;;;;4.90;4.50;;;15.40;99.90;;;;;;5019741;28;20235;-78
2021/10/03 04:22:33;;;;;;;4.70;4.30;;;15.30;99.90;;;;;;5026097;28;20224;-76
2021/10/03 04:25:00;;;;;;;5.00;4.50;;;15.30;99.90;;;;;;5022232;28;20289;-78
2021/10/03 04:27:27;;;;;;;5.18;4.32;;;15.30;99.90;;;;;;5020273;28;20285;-76
2021/10/03 04:29:55;;;;;;;5.18;4.78;;;15.30;99.90;;;;;;5016173;28;20231;-76
2021/10/03 04:32:23;;;;;;;5.25;4.75;;;15.30;99.90;;;;;;5018725;28;20231;-77
2021/10/03 04:34:50;;;;;;;4.95;4.45;;;15.30;99.90;;;;;;5019501;28;20259;-76
2021/10/03 04:37:17;;;;;;;4.82;4.43;;;15.30;99.90;;;;;;5020338;28;20292;-76
2021/10/03 04:39:44;;;;;;;3.97;3.58;;;15.30;99.90;;;;;;5019870;28;20226;-76
2021/10/03 04:42:11;;;;;;;5.25;4.75;;;15.40;99.90;;;;;;5021525;28;20288;-77
2021/10/03 04:44:38;;;;;;;4.95;4.45;;;15.40;99.90;;;;;;5022825;28;20301;-77
2021/10/03 04:47:05;;;;;;;5.32;4.82;;;15.40;99.90;;;;;;5022147;28;20227;-76
2021/10/03 04:49:34;;;;;;;5.05;4.65;;;15.40;99.90;;;;;;5024944;28;20231;-78
2021/10/03 04:52:01;;;;;;;5.45;4.95;;;15.40;99.90;;;;;;5023570;28;20373;-77
2021/10/03 04:54:28;;;;;;;5.50;5.00;;;15.30;99.90;;;;;;5022708;28;20251;-76
2021/10/03 04:56:55;;;;;;;5.30;4.88;;;15.20;99.90;;;;;;5021193;28;20231;-76
2021/10/03 04:59:22;;;;;;;5.05;4.65;;;15.20;99.90;;;;;;5028424;28;20227;-77
2021/10/03 05:01:49;;;;;;;4.82;4.35;;;15.10;99.90;;;;;;5025630;28;20738;-78
2021/10/03 05:04:16;;;;;;;5.05;4.55;;;15.20;99.90;;;;;;5023094;28;20254;-77
2021/10/03 05:06:44;;;;;;;4.43;4.07;;;15.20;99.90;;;;;;5028801;28;20667;-76
2021/10/03 05:09:11;;;;;;;4.95;4.45;;;15.20;99.90;;;;;;5024148;28;20223;-76
2021/10/03 05:11:38;;;;;;;5.15;4.65;;;15.20;99.90;;;;;;5025003;28;20243;-77
2021/10/03 05:14:06;;;;;;;4.75;4.35;;;15.20;99.90;;;;;;5026929;28;20254;-78
2021/10/03 05:16:35;;;;;;;4.93;4.43;;;15.20;99.90;;;;;;5020056;28;20242;-79
2021/10/03 05:19:02;;;;;;;4.57;4.18;;;15.10;99.90;;;;;;5006788;28;20222;-76
2021/10/03 05:21:29;;;;;;;4.57;4.20;;;15.20;99.90;;;;;;5001724;28;20673;-76
2021/10/03 05:23:58;;;;;;;5.10;4.55;;;15.20;99.90;;;;;;5002925;28;20262;-76
2021/10/03 05:26:25;;;;;;;4.80;4.30;;;15.20;99.90;;;;;;5015793;28;20800;-78
2021/10/03 05:28:52;;;;;;;4.55;4.15;;;15.10;99.90;;;;;;5028553;28;20239;-77
2021/10/03 05:31:19;;;;;;;5.13;4.63;;;15.10;99.90;;;;;;5025142;28;20646;-76
2021/10/03 05:33:46;;;;;;;5.43;4.90;;;15.10;99.90;;;;;;5029198;28;20223;-78
2021/10/03 05:36:13;;;;;;;6.07;5.43;;;15.10;99.90;;;;;;5023025;28;20362;-77
2021/10/03 05:38:40;;;;;;;6.45;5.85;;;15.00;99.90;;;;;;5018701;28;20363;-77
2021/10/03 05:41:09;;;;;;;6.47;5.72;;;14.90;99.90;;;;;;5023018;28;20240;-77
2021/10/03 05:43:37;;;;;;;5.47;4.97;;;14.80;99.90;;;;;;5025641;28;20517;-77
2021/10/03 05:46:05;;;;;;;4.93;4.22;;;14.80;99.90;;;;;;5025631;28;20233;-77
2021/10/03 05:48:32;;;;;;;5.10;4.60;;;14.80;99.90;;;;;;5016510;28;20219;-74
2021/10/03 05:50:59;;;;;;;4.20;3.90;;;14.90;99.90;;;;;;5025690;28;20302;-75
2021/10/03 05:53:27;;;;;;;4.25;3.90;;;15.00;99.90;;;;;;5022345;28;20227;-77
2021/10/03 05:55:54;;;;;;;4.30;3.90;;;15.00;99.90;;;;;;5026572;28;20323;-78
2021/10/03 05:58:22;;;;;;;4.25;3.85;;;15.10;99.90;;;;;;5023611;28;20266;-77
2021/10/03 06:00:49;;;;;;;4.72;3.85;;;15.10;99.90;;;;;;5025261;28;20645;-77
2021/10/03 06:03:16;;;;;;;4.10;3.80;;;15.10;99.90;;;;;;5024075;28;20276;-77
2021/10/03 06:05:43;;;;;;;4.28;3.88;;;15.20;99.90;;;;;;5022877;28;20963;-76
2021/10/03 06:08:11;;;;;;;4.90;4.18;;;15.20;99.90;;;;;;5013366;28;20227;-77
2021/10/03 06:10:39;;;;;;;4.20;3.80;;;15.20;99.90;;;;;;5022422;28;20464;-80
2021/10/03 06:13:06;;;;;;;4.90;4.50;;;15.20;99.90;;;;;;5023713;28;20250;-77
2021/10/03 06:15:35;;;;;;;4.85;4.45;;;15.30;99.90;;;;;;5007693;28;20247;-77
2021/10/03 06:18:03;;;;;;;5.22;4.82;;;15.20;99.90;;;;;;4985486;28;20282;-77
2021/10/03 06:20:30;;;;;;;4.80;4.40;;;15.20;99.90;;;;;;5019373;28;20242;-78
2021/10/03 06:22:57;;;;;;;4.57;4.18;;;15.20;99.90;;;;;;5020902;28;22319;-76
2021/10/03 06:25:24;;;;;;;4.65;4.25;;;15.20;99.90;;;;;;5017788;28;20724;-77
2021/10/03 06:27:51;;;;;;;5.07;4.45;;;15.20;99.90;;;;;;5020112;28;20282;-79
2021/10/03 06:30:18;;;;;;;4.68;4.32;;;15.20;99.90;;;;;;5018412;28;20365;-78
2021/10/03 06:32:46;;;;;;;4.32;4.03;;;15.30;99.90;;;;;;5018605;28;20780;-77
2021/10/03 06:35:14;;;;;;;4.32;3.97;;;15.30;99.90;;;;;;5020373;28;20658;-77
2021/10/03 06:37:41;;;;;;;5.68;4.68;;;15.30;99.90;;;;;;5023076;28;20652;-76
2021/10/03 06:40:09;;;;;;;5.43;4.93;;;15.20;99.90;;;;;;5025380;28;20236;-76
2021/10/03 06:42:36;;;;;;;6.50;5.90;;;15.10;99.90;;;;;;5027891;28;20285;-76
2021/10/03 06:45:03;;;;;;;5.40;4.90;;;15.10;99.90;;;;;;5011944;28;20628;-77
2021/10/03 06:47:30;;;;;;;6.60;5.93;;;15.00;99.90;;;;;;5018457;28;20273;-78
2021/10/03 06:49:59;;;;;;;4.80;4.40;;;15.00;99.90;;;;;;5019808;28;20293;-77
2021/10/03 06:52:26;;;;;;;5.15;4.40;;;15.10;99.90;;;;;;5022873;28;20464;-80
2021/10/03 06:54:53;;;;;;;5.20;4.68;;;15.10;99.90;;;;;;5019420;28;20411;-77
2021/10/03 06:57:20;;;;;;;5.20;4.55;;;15.10;99.90;;;;;;5019511;28;20227;-80
2021/10/03 06:59:47;;;;;;;5.32;4.38;;;15.20;99.90;;;;;;5021130;28;20285;-80
2021/10/03 07:02:19;;;;;;;5.13;4.63;;;15.20;99.90;;;;;;5022533;28;20310;-77
2021/10/03 07:04:46;;;;;;;5.40;4.13;;;15.30;99.90;;;;;;5012030;28;20231;-80
2021/10/03 07:07:14;;;;;;;4.53;4.13;;;15.30;99.90;;;;;;5023861;28;20239;-79
2021/10/03 07:09:41;;;;;;;4.50;4.20;;;15.30;99.90;;;;;;5026138;28;20669;-79
2021/10/03 07:12:08;;;;;;;4.55;4.15;;;15.40;99.90;;;;;;5008564;28;20228;-77
2021/10/03 07:14:35;;;;;;;4.68;4.28;;;15.30;99.90;;;;;;5011629;28;20725;-81
2021/10/03 07:17:03;;;;;;;4.72;4.32;;;15.40;99.90;;;;;;4999340;28;20231;-79
2021/10/03 07:19:30;;;;;;;5.25;4.78;;;15.40;99.90;;;;;;5015363;28;20227;-77
2021/10/03 07:21:57;;;;;;;5.10;4.18;;;15.40;99.90;;;;;;5025418;28;20247;-77
2021/10/03 07:24:26;;;;;;;4.28;3.88;;;15.40;99.90;;;;;;5023216;28;20228;-78
2021/10/03 07:26:53;;;;;;;4.50;3.97;;;15.40;99.90;;;;;;5022340;28;20306;-76
2021/10/03 07:29:20;;;;;;;4.13;3.83;;;15.50;99.90;;;;;;5023088;28;20265;-77
2021/10/03 07:31:47;;;;;;;5.40;4.82;;;15.50;99.90;;;;;;5022780;28;20239;-79
2021/10/03 07:34:14;;;;;;;5.43;4.90;;;15.40;99.90;;;;;;5028519;28;20222;-77
2021/10/03 07:36:41;;;;;;;5.25;4.82;;;15.40;99.90;;;;;;5025655;28;20708;-79
2021/10/03 07:39:08;;;;;;;4.90;4.50;;;15.30;99.90;;;;;;5019150;28;20231;-79
2021/10/03 07:41:37;;;;;;;5.20;4.72;;;15.20;99.90;;;;;;5028336;28;20632;-77
2021/10/03 07:44:04;;;;;;;4.50;4.10;;;15.20;99.90;;;;;;5018951;28;20219;-78
2021/10/03 07:46:31;;;;;;;4.10;3.80;;;15.20;99.90;;;;;;5015237;28;20588;-78
2021/10/03 07:48:59;;;;;;;5.18;4.68;;;15.20;99.90;;;;;;5011611;28;20700;-79
2021/10/03 07:51:26;;;;;;;5.03;4.63;;;15.10;99.90;;;;;;5017564;28;20293;-79
2021/10/03 07:53:53;;;;;;;4.80;4.30;;;15.10;99.90;;;;;;5011919;28;21513;-76
2021/10/03 07:56:20;;;;;;;4.88;4.43;;;15.00;99.90;;;;;;4995896;28;20239;-76
2021/10/03 07:58:48;;;;;;;4.47;4.13;;;15.00;99.90;;;;;;5000699;28;20224;-80
2021/10/03 08:01:16;;;;;;;5.70;5.13;;;15.00;99.90;;;;;;5019742;28;20277;-78
2021/10/03 08:03:43;;;;;;;6.45;5.95;;;15.00;99.90;;;;;;5007262;28;20236;-78
2021/10/03 08:06:10;;;;;;;6.28;5.78;;;15.00;99.90;;;;;;5014303;28;20732;-78
2021/10/03 08:08:37;;;;;;;5.80;5.30;;;15.00;99.90;;;;;;5021872;28;20238;-77
2021/10/03 08:11:04;;;;;;;6.10;5.60;;;15.00;99.90;;;;;;5018578;28;20234;-76
2021/10/03 08:13:31;;;;;;;6.07;5.50;;;15.10;99.90;;;;;;5018125;28;20231;-78
2021/10/03 08:16:00;;;;;;;5.28;4.78;;;15.20;99.90;;;;;;5016193;28;20227;-80
2021/10/03 08:18:27;;;;;;;5.88;5.35;;;15.10;99.90;;;;;;4999149;28;22188;-77
2021/10/03 08:20:54;;;;;;;6.03;5.53;;;15.10;99.90;;;;;;5001009;28;20245;-78
2021/10/03 08:23:21;;;;;;;6.38;5.75;;;15.00;99.90;;;;;;5005789;28;20227;-78
2021/10/03 08:25:49;;;;;;;6.03;5.53;;;14.90;99.90;;;;;;5020291;28;20223;-78
2021/10/03 08:28:17;;;;;;;5.57;5.07;;;14.90;99.90;;;;;;5005222;28;20216;-79
2021/10/03 08:30:44;;;;;;;6.35;5.78;;;15.00;99.90;;;;;;5009470;28;20227;-78
2021/10/03 08:33:13;;;;;;;7.38;6.07;;;15.00;99.90;;;;;;5020611;28;20780;-81
2021/10/03 08:35:40;;;;;;;5.82;5.32;;;15.20;99.90;;;;;;5016632;28;20242;-79
2021/10/03 08:38:07;;;;;;;6.07;5.53;;;15.30;99.90;;;;;;5003111;28;20224;-77
2021/10/03 08:40:34;;;;;;;7.10;6.50;;;15.50;99.90;;;;;;5007344;28;20650;-78
2021/10/03 08:43:03;;;;;;;8.40;7.43;;;15.50;99.90;;;;;;5024769;28;20239;-79
2021/10/03 08:45:31;;;;;;;7.80;7.00;;;15.40;99.90;;;;;;5018639;28;20686;-79
2021/10/03 08:47:59;;;;;;;6.80;6.20;;;15.20;99.90;;;;;;5025357;28;20285;-80
2021/10/03 08:50:27;;;;;;;7.43;6.53;;;15.20;99.90;;;;;;5023719;28;20636;-78
2021/10/03 08:52:54;;;;;;;7.57;6.75;;;15.20;99.90;;;;;;5135583;23;20222;-76
2021/10/03 08:55:21;;;;;;;6.95;6.35;;;15.10;99.90;;;;;;5066524;28;20287;-78
2021/10/03 08:57:48;;;;;;;7.72;7.03;;;15.00;99.90;;;;;;5069130;28;20275;-75
2021/10/03 09:00:19;;;;;;;7.22;6.53;;;15.10;99.90;;;;;;5053070;28;20276;-75
2021/10/03 09:02:54;;;;;;;6.72;6.03;;;15.10;99.90;;;;;;5043411;28;20226;-77
2021/10/03 09:05:23;;;;;;;6.88;6.18;;;15.30;99.90;;;;;;5046671;28;20229;-77
2021/10/03 09:08:01;;;;;;;6.47;5.88;;;15.40;99.90;;;;;;5042398;28;20234;-75
2021/10/03 09:10:28;;;;;;;7.95;7.05;;;15.60;99.90;;;;;;5048400;28;20312;-77
2021/10/03 09:12:58;;;;;;;8.20;7.40;;;15.90;99.90;;;;;;5046676;28;20226;-76
2021/10/03 09:15:25;;;;;;;7.43;6.07;;;16.10;99.90;;;;;;5046111;28;20310;-77
2021/10/03 09:17:53;;;;;;;7.22;6.53;;;16.10;99.90;;;;;;5049434;28;20235;-79
2021/10/03 09:20:23;;;;;;;6.28;5.68;;;16.30;99.90;;;;;;5049829;28;20527;-76
2021/10/03 09:22:56;;;;;;;6.38;5.78;;;16.50;99.90;;;;;;5050555;28;20253;-75
2021/10/03 09:25:43;;;;;;;6.32;5.72;;;16.60;99.90;;;;;;5047606;28;20226;-76
2021/10/03 09:28:12;;;;;;;7.28;6.10;;;16.70;99.90;;;;;;5043578;28;20235;-77
2021/10/03 09:30:55;;;;;;;8.30;6.43;;;16.80;99.90;;;;;;5049714;28;20670;-76
2021/10/03 09:33:23;;;;;;;6.45;5.95;;;16.80;99.90;;;;;;5042126;28;20272;-77
2021/10/03 09:35:58;;;;;;;6.80;6.20;;;16.70;99.90;;;;;;5044468;28;20230;-76
2021/10/03 09:38:26;;;;;;;6.40;5.80;;;16.60;99.90;;;;;;5041597;28;20310;-75
2021/10/03 09:41:08;;;;;;;7.55;6.75;;;16.50;99.90;;;;;;5046669;28;20394;-75
2021/10/03 09:43:45;;;;;;;6.82;6.13;;;16.40;99.90;;;;;;5056986;28;20235;-76
2021/10/03 09:46:34;;;;;;;7.25;6.55;;;16.30;99.90;;;;;;5048645;28;20663;-77
2021/10/03 09:49:04;;;;;;;6.47;5.88;;;16.30;99.90;;;;;;5048118;28;20312;-76
2021/10/03 09:51:31;;;;;;;6.53;5.75;;;16.50;99.90;;;;;;5054978;28;20237;-76
2021/10/03 09:53:59;;;;;;;6.18;5.60;;;16.70;99.90;;;;;;5050902;28;20238;-75
2021/10/03 09:56:28;;;;;;;6.22;5.63;;;16.80;99.90;;;;;;5050314;28;20310;-76
2021/10/03 09:58:55;;;;;;;7.57;5.47;;;16.90;99.90;;;;;;5046868;28;20305;-76
2021/10/03 10:01:26;;;;;;;7.15;5.88;;;17.10;99.90;;;;;;5050880;28;20287;-77
2021/10/03 10:03:53;;;;;;;6.80;6.15;;;17.20;99.90;;;;;;5050873;28;20251;-76
2021/10/03 10:06:23;;;;;;;8.07;7.22;;;17.40;99.90;;;;;;5051026;28;20214;-76
2021/10/03 10:08:55;;;;;;;6.88;6.07;;;17.70;99.90;;;;;;5045189;28;20235;-76
2021/10/03 10:11:30;;;;;;;7.13;6.43;;;17.90;99.90;;;;;;5050621;28;20313;-75
2021/10/03 10:13:59;;;;;;;6.85;6.25;;;18.20;99.90;;;;;;5051536;28;20283;-76
2021/10/03 10:16:41;;;;;;;7.55;6.70;;;18.40;99.90;;;;;;5082315;28;20226;-76
2021/10/03 10:19:33;;;;;;;8.75;7.75;;;18.60;99.90;;;;;;5089782;28;20240;-77
2021/10/03 10:22:36;;;;;;;8.63;7.72;;;19.20;99.90;;;;;;5091080;28;20236;-76
2021/10/03 10:25:18;;;;;;;8.68;7.88;;;19.60;99.90;;;;;;5081394;28;20237;-76
2021/10/03 10:28:34;;;;;;;8.50;7.68;;;20.00;99.90;;;;;;5090526;28;20232;-76
2021/10/03 10:31:07;;;;;;;8.52;7.63;;;20.20;99.90;;;;;;5088136;28;20234;-75
2021/10/03 10:34:05;;;;;;;8.07;7.28;;;20.40;99.90;;;;;;5081865;28;20218;-76
2021/10/03 10:36:35;;;;;;;8.70;7.55;;;20.80;99.90;;;;;;5087313;28;20706;-76
2021/10/03 10:39:22;;;;;;;8.15;7.22;;;20.90;99.90;;;;;;5091335;28;20229;-77
2021/10/03 10:41:51;;;;;;;8.88;7.57;;;20.90;99.90;;;;;;5082784;28;20233;-76
2021/10/03 10:44:39;;;;;;;9.60;8.38;;;21.20;99.90;;;;;;5085168;28;20221;-75
2021/10/03 10:47:15;;;;;;;7.82;6.95;;;21.10;99.90;;;;;;5089550;28;20308;-76
2021/10/03 10:49:53;;;;;;;7.22;6.60;;;20.40;99.90;;;;;;5094370;28;20719;-77
2021/10/03 10:52:34;;;;;;;9.48;8.55;;;19.90;99.90;;;;;;5082894;28;20715;-78
2021/10/03 10:55:32;;;;;;;10.73;8.40;;;19.40;99.90;;;;;;5088476;28;20237;-76
2021/10/03 10:58:16;;;;;;;8.13;7.30;;;18.90;99.90;;;;;;5085540;28;20225;-76
2021/10/03 11:01:11;;;;;;;7.65;6.80;;;18.70;99.90;;;;;;5085974;28;20210;-77
2021/10/03 11:04:07;;;;;;;7.18;6.47;;;18.60;99.90;;;;;;5079615;28;20260;-77
2021/10/03 11:07:04;;;;;;;7.10;6.40;;;18.60;99.90;;;;;;5083612;28;20217;-77
2021/10/03 11:10:02;;;;;;;10.65;6.75;;;18.80;99.90;;;;;;5080128;28;20233;-76
2021/10/03 11:12:34;;;;;;;7.53;6.40;;;19.00;99.90;;;;;;5083146;28;20231;-76
2021/10/03 11:15:24;;;;;;;6.68;6.07;;;19.00;99.90;;;;;;5088919;28;20268;-76
2021/10/03 11:17:52;;;;;;;6.90;6.15;;;19.10;99.90;;;;;;5081590;28;20495;-77
2021/10/03 11:20:19;;;;;;;6.75;6.15;;;19.00;99.90;;;;;;5086160;28;20234;-77
2021/10/03 11:22:46;;;;;;;7.88;6.82;;;19.10;99.90;;;;;;5083490;28;20287;-76
2021/10/03 11:25:19;;;;;;;6.53;5.90;;;19.10;99.90;;;;;;5081249;28;20307;-76
2021/10/03 11:27:54;;;;;;;6.97;6.28;;;19.20;99.90;;;;;;5083828;28;20257;-76
2021/10/03 11:30:21;;;;;;;8.52;6.60;;;19.20;99.90;;;;;;5077980;28;20663;-75
2021/10/03 11:32:48;;;;;;;6.80;6.20;;;19.10;99.90;;;;;;5076322;28;20283;-76
2021/10/03 11:35:17;;;;;;;7.18;6.47;;;19.10;99.90;;;;;;5081966;28;20233;-76
2021/10/03 11:37:48;;;;;;;7.78;7.07;;;19.00;99.90;;;;;;5088962;28;20236;-76
2021/10/03 11:40:19;;;;;;;6.50;5.97;;;18.90;99.90;;;;;;5086874;28;20255;-77
2021/10/03 11:42:48;;;;;;;6.50;5.90;;;18.90;99.90;;;;;;5089163;28;20233;-76
2021/10/03 11:45:18;;;;;;;6.35;5.75;;;19.00;99.90;;;;;;5084389;28;20229;-75
2021/10/03 11:47:47;;;;;;;5.78;5.28;;;18.90;99.90;;;;;;5085324;28;20778;-76
2021/10/03 11:50:17;;;;;;;4.55;4.15;;;19.10;99.90;;;;;;5089071;28;20221;-76
2021/10/03 11:52:44;;;;;;;6.85;5.00;;;19.40;99.90;;;;;;5089696;28;20645;-76
2021/10/03 11:55:15;;;;;;;5.75;5.25;;;19.60;99.90;;;;;;5090106;28;20261;-75
2021/10/03 11:57:46;;;;;;;6.15;5.65;;;19.80;99.90;;;;;;5090265;28;20642;-76
2021/10/03 12:00:20;;;;;;;8.05;7.22;;;19.80;99.90;;;;;;5080499;28;20225;-75
2021/10/03 12:02:49;;;;;;;6.45;5.85;;;19.70;99.90;;;;;;5080410;28;20312;-76
2021/10/03 12:05:21;;;;;;;8.82;6.57;;;19.60;99.90;;;;;;5088546;28;20225;-76
2021/10/03 12:08:00;;;;;;;9.38;6.95;;;19.40;99.90;;;;;;5087522;28;20229;-76
2021/10/03 13:12:11;;;;;;;5.78;5.28;;;18.60;99.90;;;;;;4891466;28;20213;-74
2021/10/03 13:41:56;;;;;;;5.40;4.90;;;18.70;99.90;;;;;;4996253;28;20251;-76
2021/10/03 14:53:07;;;;;;;4.45;4.05;;;17.50;99.90;;;;;;4932299;22;20394;-76
2021/10/03 14:55:34;;;;;;;4.50;4.18;;;17.50;99.90;;;;;;5028724;28;20238;-75
2021/10/03 14:58:04;;;;;;;5.05;4.57;;;17.50;99.90;;;;;;5041824;28;20238;-75
2021/10/03 15:00:31;;;;;;;5.10;4.70;;;17.50;99.90;;;;;;5042627;28;20226;-75
2021/10/03 15:02:58;;;;;;;4.70;4.30;;;17.40;99.90;;;;;;5042216;28;20619;-75
2021/10/03 15:05:25;;;;;;;5.82;5.28;;;17.40;99.90;;;;;;5046376;28;20219;-76
2021/10/03 15:07:52;;;;;;;4.88;4.47;;;17.40;99.90;;;;;;5041825;28;20484;-74
2021/10/03 15:10:21;;;;;;;5.72;5.22;;;17.40;99.90;;;;;;5046419;28;20225;-75
2021/10/03 15:12:48;;;;;;;4.72;4.32;;;17.30;99.90;;;;;;5040266;28;20222;-75
2021/10/03 15:15:16;;;;;;;5.50;5.00;;;17.30;99.90;;;;;;5037987;28;20234;-75
2021/10/03 15:17:44;;;;;;;4.45;4.05;;;17.40;99.90;;;;;;5041958;28;20318;-75
2021/10/03 15:20:14;;;;;;;3.97;3.58;;;17.50;99.90;;;;;;5042637;28;20309;-75
2021/10/03 15:22:41;;;;;;;7.40;6.43;;;17.50;99.90;;;;;;5055748;28;20250;-76
2021/10/03 15:25:10;;;;;;;6.13;5.53;;;17.60;99.90;;;;;;5046506;28;20234;-75
2021/10/03 15:27:39;;;;;;;5.18;4.78;;;17.50;99.90;;;;;;5046153;28;20242;-76
2021/10/03 15:30:07;;;;;;;6.30;5.72;;;17.60;99.90;;;;;;5045671;28;20249;-75
2021/10/03 15:32:35;;;;;;;6.45;5.85;;;17.50;99.90;;;;;;5034249;28;21442;-75
2021/10/03 15:35:02;;;;;;;5.95;4.65;;;17.50;99.90;;;;;;5015241;28;20232;-75
2021/10/03 15:37:30;;;;;;;5.97;5.18;;;17.50;99.90;;;;;;5015223;28;20231;-74